createdAt,value
2022-11-27T00:00:24.214Z,1003.78
2022-11-27T00:01:24.196Z,1003.75
2022-11-27T00:02:24.246Z,1003.79
2022-11-27T00:03:24.267Z,1003.79
2022-11-27T00:04:24.220Z,1003.79
2022-11-27T00:05:24.165Z,1003.81
2022-11-27T00:06:24.151Z,1003.80
2022-11-27T00:07:24.211Z,1003.79
2022-11-27T00:08:24.140Z,1003.74
2022-11-27T00:09:24.093Z,1003.74
2022-11-27T00:10:24.092Z,1003.73
2022-11-27T00:11:24.082Z,1003.73
2022-11-27T00:12:24.116Z,1003.73
2022-11-27T00:13:24.124Z,1003.76
2022-11-27T00:14:24.065Z,1003.76
2022-11-27T00:15:24.072Z,1003.72
2022-11-27T00:16:24.097Z,1003.72
2022-11-27T00:17:24.036Z,1003.73
2022-11-27T00:18:24.032Z,1003.75
2022-11-27T00:19:24.011Z,1003.75
2022-11-27T00:20:28.526Z,1003.77
2022-11-27T00:21:24.972Z,1003.77
2022-11-27T00:22:24.013Z,1003.79
2022-11-27T00:23:23.993Z,1003.79
2022-11-27T00:24:23.977Z,1003.81
2022-11-27T00:25:23.944Z,1003.78
2022-11-27T00:26:23.944Z,1003.84
2022-11-27T00:27:23.923Z,1003.82
2022-11-27T00:28:23.934Z,1003.78
2022-11-27T00:29:23.924Z,1003.80
2022-11-27T00:30:23.905Z,1003.78
2022-11-27T00:31:23.938Z,1003.75
2022-11-27T00:32:23.882Z,1003.72
2022-11-27T00:33:23.853Z,1003.72
2022-11-27T00:34:23.862Z,1003.73
2022-11-27T00:35:23.845Z,1003.71
2022-11-27T00:36:23.842Z,1003.70
2022-11-27T00:37:23.829Z,1003.67
2022-11-27T00:38:23.812Z,1003.68
2022-11-27T00:39:23.793Z,1003.64
2022-11-27T00:40:23.814Z,1003.66
2022-11-27T00:41:23.784Z,1003.66
2022-11-27T00:42:23.819Z,1003.68
2022-11-27T00:43:23.756Z,1003.71
2022-11-27T00:44:23.764Z,1003.70
2022-11-27T00:45:23.764Z,1003.71
2022-11-27T00:46:28.053Z,1003.71
2022-11-27T00:47:24.723Z,1003.69
2022-11-27T00:48:23.719Z,1003.70
2022-11-27T00:49:23.720Z,1003.71
2022-11-27T00:50:23.714Z,1003.68
2022-11-27T00:51:23.687Z,1003.64
2022-11-27T00:52:23.662Z,1003.66
2022-11-27T00:53:24.614Z,1003.62
2022-11-27T00:54:23.644Z,1003.62
2022-11-27T00:55:23.675Z,1003.63
2022-11-27T00:56:23.625Z,1003.62
2022-11-27T00:57:23.646Z,1003.67
2022-11-27T00:58:23.605Z,1003.61
2022-11-27T00:59:23.625Z,1003.66
2022-11-27T01:00:23.585Z,1003.66
2022-11-27T01:01:23.676Z,1003.64
2022-11-27T01:02:23.630Z,1003.66
2022-11-27T01:03:23.574Z,1003.70
2022-11-27T01:04:23.534Z,1003.72
2022-11-27T01:05:23.554Z,1003.66
2022-11-27T01:06:23.543Z,1003.65
2022-11-27T01:07:23.574Z,1003.66
2022-11-27T01:08:23.503Z,1003.64
2022-11-27T01:09:23.520Z,1003.64
2022-11-27T01:10:23.483Z,1003.70
2022-11-27T01:11:23.495Z,1003.73
2022-11-27T01:12:23.506Z,1003.72
2022-11-27T01:13:23.466Z,1003.69
2022-11-27T01:14:23.447Z,1003.74
2022-11-27T01:15:23.435Z,1003.71
2022-11-27T01:16:23.503Z,1003.72
2022-11-27T01:17:23.453Z,1003.69
2022-11-27T01:18:23.434Z,1003.70
2022-11-27T01:19:23.394Z,1003.70
2022-11-27T01:20:23.397Z,1003.66
2022-11-27T01:21:24.338Z,1003.70
2022-11-27T01:22:23.386Z,1003.67
2022-11-27T01:23:23.365Z,1003.68
2022-11-27T01:24:23.396Z,1003.65
2022-11-27T01:25:26.914Z,1003.67
2022-11-27T01:26:23.355Z,1003.62
2022-11-27T01:27:23.316Z,1003.66
2022-11-27T01:28:23.314Z,1003.62
2022-11-27T01:29:23.297Z,1003.62
2022-11-27T01:30:23.316Z,1003.60
2022-11-27T01:31:23.314Z,1003.64
2022-11-27T01:32:23.274Z,1003.60
2022-11-27T01:33:23.254Z,1003.59
2022-11-27T01:34:23.267Z,1003.58
2022-11-27T01:35:23.235Z,1003.59
2022-11-27T01:36:23.264Z,1003.49
2022-11-27T01:37:23.210Z,1003.50
2022-11-27T01:38:23.226Z,1003.46
2022-11-27T01:39:23.205Z,1003.41
2022-11-27T01:40:23.197Z,1003.42
2022-11-27T01:41:23.177Z,1003.39
2022-11-27T01:42:23.194Z,1003.38
2022-11-27T01:43:23.167Z,1003.36
2022-11-27T01:44:23.154Z,1003.36
2022-11-27T01:45:23.155Z,1003.42
2022-11-27T01:46:23.234Z,1003.40
2022-11-27T01:47:23.106Z,1003.39
2022-11-27T01:48:23.112Z,1003.35
2022-11-27T01:49:23.097Z,1003.36
2022-11-27T01:50:23.104Z,1003.37
2022-11-27T01:51:23.096Z,1003.36
2022-11-27T01:52:23.089Z,1003.36
2022-11-27T01:53:23.056Z,1003.39
2022-11-27T01:54:23.076Z,1003.33
2022-11-27T01:55:23.049Z,1003.33
2022-11-27T01:56:23.055Z,1003.32
2022-11-27T01:57:23.059Z,1003.28
2022-11-27T01:58:23.027Z,1003.35
2022-11-27T01:59:22.999Z,1003.32
2022-11-27T02:00:22.999Z,1003.32
2022-11-27T02:01:23.015Z,1003.33
2022-11-27T02:02:23.130Z,1003.28
2022-11-27T02:03:23.744Z,1003.29
2022-11-27T02:04:22.964Z,1003.26
2022-11-27T02:05:22.934Z,1003.26
2022-11-27T02:06:22.953Z,1003.24
2022-11-27T02:07:22.975Z,1003.20
2022-11-27T02:08:22.928Z,1003.16
2022-11-27T02:09:22.897Z,1003.21
2022-11-27T02:10:22.951Z,1003.17
2022-11-27T02:11:22.880Z,1003.14
2022-11-27T02:12:22.887Z,1003.14
2022-11-27T02:13:22.887Z,1003.11
2022-11-27T02:14:22.868Z,1003.14
2022-11-27T02:15:22.847Z,1003.15
2022-11-27T02:16:22.953Z,1003.14
2022-11-27T02:17:22.815Z,1003.10
2022-11-27T02:18:22.824Z,1003.15
2022-11-27T02:19:22.785Z,1003.07
2022-11-27T02:20:22.812Z,1003.06
2022-11-27T02:21:22.787Z,1003.05
2022-11-27T02:22:22.797Z,1003.06
2022-11-27T02:23:22.760Z,1002.99
2022-11-27T02:24:22.755Z,1002.99
2022-11-27T02:25:26.876Z,1002.99
2022-11-27T02:26:23.735Z,1003.01
2022-11-27T02:27:22.706Z,1003.00
2022-11-27T02:28:22.755Z,1002.99
2022-11-27T02:29:22.686Z,1003.01
2022-11-27T02:30:22.699Z,1002.98
2022-11-27T02:31:22.729Z,1002.89
2022-11-27T02:32:22.678Z,1002.89
2022-11-27T02:33:22.689Z,1002.90
2022-11-27T02:34:22.658Z,1002.88
2022-11-27T02:35:22.640Z,1002.94
2022-11-27T02:36:22.631Z,1002.87
2022-11-27T02:37:22.650Z,1002.89
2022-11-27T02:38:22.624Z,1002.94
2022-11-27T02:39:22.600Z,1002.93
2022-11-27T02:40:22.607Z,1002.89
2022-11-27T02:41:22.567Z,1002.90
2022-11-27T02:42:22.608Z,1002.91
2022-11-27T02:43:22.576Z,1002.94
2022-11-27T02:44:22.546Z,1002.94
2022-11-27T02:45:22.551Z,1002.97
2022-11-27T02:47:19.884Z,1003.01
2022-11-27T02:48:19.404Z,1003.00
2022-11-27T02:49:19.434Z,1002.93
2022-11-27T02:50:19.375Z,1002.91
2022-11-27T02:51:19.407Z,1002.90
2022-11-27T02:52:19.375Z,1002.95
2022-11-27T02:53:19.344Z,1002.97
2022-11-27T02:54:19.345Z,1002.87
2022-11-27T02:55:19.332Z,1002.89
2022-11-27T02:56:19.304Z,1002.92
2022-11-27T02:57:19.335Z,1002.95
2022-11-27T02:58:19.285Z,1002.89
2022-11-27T02:59:19.296Z,1002.88
2022-11-27T03:00:19.275Z,1002.86
2022-11-27T03:01:19.342Z,1002.83
2022-11-27T03:02:19.473Z,1002.81
2022-11-27T03:03:19.366Z,1002.77
2022-11-27T03:04:19.224Z,1002.73
2022-11-27T03:05:19.234Z,1002.72
2022-11-27T03:06:19.203Z,1002.70
2022-11-27T03:07:19.284Z,1002.69
2022-11-27T03:08:19.187Z,1002.73
2022-11-27T03:09:19.196Z,1002.68
2022-11-27T03:10:19.176Z,1002.67
2022-11-27T03:11:20.135Z,1002.68
2022-11-27T03:12:19.173Z,1002.67
2022-11-27T03:13:19.145Z,1002.72
2022-11-27T03:14:19.149Z,1002.68
2022-11-27T03:15:19.156Z,1002.74
2022-11-27T03:16:19.212Z,1002.70
2022-11-27T03:17:19.112Z,1002.66
2022-11-27T03:18:19.284Z,1002.69
2022-11-27T03:19:19.093Z,1002.71
2022-11-27T03:20:19.055Z,1002.75
2022-11-27T03:21:19.097Z,1002.66
2022-11-27T03:22:19.044Z,1002.69
2022-11-27T03:23:19.054Z,1002.65
2022-11-27T03:24:19.034Z,1002.68
2022-11-27T03:25:19.037Z,1002.71
2022-11-27T03:26:19.005Z,1002.73
2022-11-27T03:27:19.016Z,1002.73
2022-11-27T03:28:19.025Z,1002.72
2022-11-27T03:29:18.996Z,1002.70
2022-11-27T03:30:18.966Z,1002.70
2022-11-27T03:31:18.998Z,1002.66
2022-11-27T03:32:18.957Z,1002.66
2022-11-27T03:33:18.964Z,1002.69
2022-11-27T03:34:18.974Z,1002.71
2022-11-27T03:35:18.944Z,1002.69
2022-11-27T03:36:18.900Z,1002.69
2022-11-27T03:37:18.904Z,1002.68
2022-11-27T03:38:18.874Z,1002.71
2022-11-27T03:39:18.885Z,1002.69
2022-11-27T03:40:18.874Z,1002.69
2022-11-27T03:41:18.885Z,1002.73
2022-11-27T03:42:18.846Z,1002.71
2022-11-27T03:43:18.866Z,1002.70
2022-11-27T03:44:18.866Z,1002.74
2022-11-27T03:45:18.877Z,1002.71
2022-11-27T03:46:18.848Z,1002.76
2022-11-27T03:47:18.849Z,1002.78
2022-11-27T03:48:18.809Z,1002.76
2022-11-27T03:49:18.776Z,1002.77
2022-11-27T03:50:18.756Z,1002.81
2022-11-27T03:51:18.775Z,1002.75
2022-11-27T03:52:18.739Z,1002.76
2022-11-27T03:53:18.737Z,1002.78
2022-11-27T03:54:18.705Z,1002.73
2022-11-27T03:55:18.785Z,1002.77
2022-11-27T03:56:18.694Z,1002.73
2022-11-27T03:57:18.837Z,1002.78
2022-11-27T03:58:18.698Z,1002.76
2022-11-27T03:59:18.691Z,1002.74
2022-11-27T04:00:18.710Z,1002.77
2022-11-27T04:01:18.655Z,1002.74
2022-11-27T04:02:18.709Z,1002.73
2022-11-27T04:03:18.645Z,1002.69
2022-11-27T04:04:18.725Z,1002.71
2022-11-27T04:05:18.627Z,1002.67
2022-11-27T04:06:18.617Z,1002.65
2022-11-27T04:07:18.632Z,1002.67
2022-11-27T04:08:18.583Z,1002.69
2022-11-27T04:09:18.581Z,1002.61
2022-11-27T04:10:18.559Z,1002.61
2022-11-27T04:11:18.588Z,1002.66
2022-11-27T04:12:18.528Z,1002.66
2022-11-27T04:13:18.544Z,1002.67
2022-11-27T04:14:18.507Z,1002.71
2022-11-27T04:15:18.544Z,1002.72
2022-11-27T04:16:18.546Z,1002.68
2022-11-27T04:17:18.526Z,1002.70
2022-11-27T04:18:18.502Z,1002.71
2022-11-27T04:19:18.473Z,1002.72
2022-11-27T04:20:18.445Z,1002.78
2022-11-27T04:21:18.477Z,1002.73
2022-11-27T04:22:18.446Z,1002.76
2022-11-27T04:23:18.446Z,1002.70
2022-11-27T04:24:18.436Z,1002.70
2022-11-27T04:25:18.419Z,1002.71
2022-11-27T04:26:18.388Z,1002.68
2022-11-27T04:27:18.433Z,1002.70
2022-11-27T04:28:18.380Z,1002.74
2022-11-27T04:29:18.376Z,1002.76
2022-11-27T04:30:18.364Z,1002.77
2022-11-27T04:31:18.401Z,1002.75
2022-11-27T04:32:18.325Z,1002.76
2022-11-27T04:33:18.355Z,1002.74
2022-11-27T04:34:18.296Z,1002.75
2022-11-27T04:35:18.314Z,1002.72
2022-11-27T04:36:18.307Z,1002.76
2022-11-27T04:37:18.307Z,1002.70
2022-11-27T04:38:18.267Z,1002.66
2022-11-27T04:39:18.279Z,1002.75
2022-11-27T04:40:18.248Z,1002.69
2022-11-27T04:41:18.320Z,1002.74
2022-11-27T04:42:18.237Z,1002.73
2022-11-27T04:43:18.247Z,1002.77
2022-11-27T04:44:18.218Z,1002.79
2022-11-27T04:45:18.205Z,1002.78
2022-11-27T04:46:18.228Z,1002.76
2022-11-27T04:47:18.213Z,1002.78
2022-11-27T04:48:18.185Z,1002.77
2022-11-27T04:49:18.155Z,1002.74
2022-11-27T04:50:18.136Z,1002.76
2022-11-27T04:51:18.146Z,1002.75
2022-11-27T04:52:18.146Z,1002.73
2022-11-27T04:53:18.157Z,1002.75
2022-11-27T04:54:18.174Z,1002.71
2022-11-27T04:55:18.107Z,1002.71
2022-11-27T04:56:18.090Z,1002.76
2022-11-27T04:57:18.088Z,1002.74
2022-11-27T04:58:18.088Z,1002.71
2022-11-27T04:59:18.067Z,1002.70
2022-11-27T05:00:18.038Z,1002.69
2022-11-27T05:01:18.165Z,1002.66
2022-11-27T05:02:18.051Z,1002.71
2022-11-27T05:03:18.085Z,1002.77
2022-11-27T05:04:17.995Z,1002.68
2022-11-27T05:05:18.018Z,1002.72
2022-11-27T05:06:18.008Z,1002.67
2022-11-27T05:07:18.044Z,1002.66
2022-11-27T05:08:17.976Z,1002.60
2022-11-27T05:09:17.965Z,1002.56
2022-11-27T05:10:17.936Z,1002.53
2022-11-27T05:11:17.945Z,1002.50
2022-11-27T05:12:17.966Z,1002.53
2022-11-27T05:13:17.952Z,1002.50
2022-11-27T05:14:17.907Z,1002.48
2022-11-27T05:15:17.905Z,1002.45
2022-11-27T05:16:17.927Z,1002.53
2022-11-27T05:17:17.908Z,1002.44
2022-11-27T05:18:17.869Z,1002.40
2022-11-27T05:19:17.861Z,1002.38
2022-11-27T05:20:17.840Z,1002.42
2022-11-27T05:21:17.865Z,1002.41
2022-11-27T05:22:17.826Z,1002.37
2022-11-27T05:23:17.819Z,1002.41
2022-11-27T05:24:17.789Z,1002.45
2022-11-27T05:25:17.796Z,1002.46
2022-11-27T05:26:17.787Z,1002.42
2022-11-27T05:27:17.785Z,1002.43
2022-11-27T05:28:21.126Z,1002.34
2022-11-27T05:29:18.757Z,1002.36
2022-11-27T05:30:17.742Z,1002.35
2022-11-27T05:31:17.771Z,1002.40
2022-11-27T05:32:17.735Z,1002.36
2022-11-27T05:33:17.746Z,1002.37
2022-11-27T05:34:17.697Z,1002.41
2022-11-27T05:35:17.708Z,1002.37
2022-11-27T05:36:17.668Z,1002.35
2022-11-27T05:37:19.633Z,1002.36
2022-11-27T05:38:17.681Z,1002.37
2022-11-27T05:39:17.659Z,1002.43
2022-11-27T05:40:17.630Z,1002.50
2022-11-27T05:41:17.626Z,1002.48
2022-11-27T05:42:17.644Z,1002.49
2022-11-27T05:43:17.606Z,1002.48
2022-11-27T05:44:17.586Z,1002.50
2022-11-27T05:45:17.597Z,1002.54
2022-11-27T05:46:17.599Z,1002.56
2022-11-27T05:47:17.627Z,1002.53
2022-11-27T05:48:17.556Z,1002.53
2022-11-27T05:49:17.559Z,1002.49
2022-11-27T05:50:17.539Z,1002.55
2022-11-27T05:51:17.537Z,1002.49
2022-11-27T05:52:17.546Z,1002.49
2022-11-27T05:53:17.522Z,1002.52
2022-11-27T05:54:17.708Z,1002.48
2022-11-27T05:55:17.501Z,1002.45
2022-11-27T05:56:17.469Z,1002.37
2022-11-27T05:57:17.477Z,1002.39
2022-11-27T05:58:17.446Z,1002.36
2022-11-27T05:59:17.447Z,1002.39
2022-11-27T06:00:17.435Z,1002.41
2022-11-27T06:01:17.416Z,1002.41
2022-11-27T06:02:22.579Z,1002.37
2022-11-27T06:03:18.449Z,1002.44
2022-11-27T06:04:17.396Z,1002.43
2022-11-27T06:05:17.418Z,1002.48
2022-11-27T06:06:17.371Z,1002.37
2022-11-27T06:07:17.426Z,1002.41
2022-11-27T06:08:18.301Z,1002.33
2022-11-27T06:09:17.359Z,1002.39
2022-11-27T06:10:17.348Z,1002.34
2022-11-27T06:11:17.366Z,1002.36
2022-11-27T06:12:17.344Z,1002.43
2022-11-27T06:13:17.286Z,1002.39
2022-11-27T06:14:17.298Z,1002.39
2022-11-27T06:15:17.266Z,1002.40
2022-11-27T06:16:17.363Z,1002.38
2022-11-27T06:17:17.268Z,1002.33
2022-11-27T06:18:17.247Z,1002.35
2022-11-27T06:19:17.261Z,1002.36
2022-11-27T06:20:17.267Z,1002.34
2022-11-27T06:21:17.209Z,1002.29
2022-11-27T06:22:17.398Z,1002.26
2022-11-27T06:23:17.189Z,1002.20
2022-11-27T06:24:17.200Z,1002.25
2022-11-27T06:25:17.169Z,1002.30
2022-11-27T06:26:17.176Z,1002.20
2022-11-27T06:27:17.166Z,1002.17
2022-11-27T06:28:17.149Z,1002.18
2022-11-27T06:29:17.127Z,1002.18
2022-11-27T06:30:17.149Z,1002.09
2022-11-27T06:31:18.306Z,1002.07
2022-11-27T06:32:17.176Z,1002.08
2022-11-27T06:33:17.085Z,1002.03
2022-11-27T06:34:17.090Z,1002.05
2022-11-27T06:35:17.058Z,1002.00
2022-11-27T06:36:17.067Z,1002.03
2022-11-27T06:37:17.059Z,1001.99
2022-11-27T06:38:17.070Z,1002.08
2022-11-27T06:39:17.058Z,1002.03
2022-11-27T06:40:17.039Z,1002.04
2022-11-27T06:41:17.009Z,1002.07
2022-11-27T06:42:17.059Z,1002.03
2022-11-27T06:43:16.990Z,1002.10
2022-11-27T06:44:17.000Z,1002.03
2022-11-27T06:45:16.958Z,1002.07
2022-11-27T06:46:17.049Z,1002.09
2022-11-27T06:47:16.937Z,1002.08
2022-11-27T06:48:16.957Z,1002.07
2022-11-27T06:49:16.918Z,1002.06
2022-11-27T06:50:16.967Z,1002.06
2022-11-27T06:51:16.919Z,1002.06
2022-11-27T06:52:16.910Z,1002.05
2022-11-27T06:53:16.879Z,1002.01
2022-11-27T06:54:16.850Z,1002.07
2022-11-27T06:55:16.878Z,1002.09
2022-11-27T06:56:16.872Z,1002.08
2022-11-27T06:57:16.849Z,1002.15
2022-11-27T06:58:16.870Z,1002.11
2022-11-27T06:59:16.830Z,1002.09
2022-11-27T07:00:16.830Z,1002.10
2022-11-27T07:01:17.011Z,1002.10
2022-11-27T07:02:17.792Z,1002.14
2022-11-27T07:03:16.768Z,1002.08
2022-11-27T07:04:16.797Z,1002.06
2022-11-27T07:05:16.766Z,1002.05
2022-11-27T07:06:16.766Z,1002.09
2022-11-27T07:07:16.747Z,1002.09
2022-11-27T07:08:16.768Z,1002.09
2022-11-27T07:09:16.719Z,1002.00
2022-11-27T07:10:16.721Z,1002.02
2022-11-27T07:11:16.650Z,1001.98
2022-11-27T07:12:16.707Z,1001.96
2022-11-27T07:13:16.677Z,1002.00
2022-11-27T07:14:16.696Z,1001.94
2022-11-27T07:15:16.649Z,1001.93
2022-11-27T07:16:16.775Z,1001.97
2022-11-27T07:17:16.640Z,1001.99
2022-11-27T07:18:16.660Z,1001.96
2022-11-27T07:19:16.630Z,1001.98
2022-11-27T07:20:16.621Z,1001.99
2022-11-27T07:21:16.602Z,1001.98
2022-11-27T07:22:16.650Z,1001.96
2022-11-27T07:23:16.589Z,1001.95
2022-11-27T07:24:16.601Z,1001.91
2022-11-27T07:25:16.588Z,1001.88
2022-11-27T07:26:16.590Z,1001.81
2022-11-27T07:27:16.529Z,1001.82
2022-11-27T07:28:19.081Z,1001.85
2022-11-27T07:29:16.507Z,1001.87
2022-11-27T07:30:16.479Z,1001.94
2022-11-27T07:31:16.467Z,1001.92
2022-11-27T07:32:16.439Z,1001.89
2022-11-27T07:33:16.430Z,1001.85
2022-11-27T07:34:21.475Z,1001.85
2022-11-27T07:35:17.411Z,1001.91
2022-11-27T07:36:16.459Z,1001.90
2022-11-27T07:37:16.475Z,1001.89
2022-11-27T07:38:16.410Z,1001.88
2022-11-27T07:39:25.227Z,1001.88
2022-11-27T07:40:17.410Z,1001.81
2022-11-27T07:41:16.379Z,1001.82
2022-11-27T07:42:37.449Z,1001.84
2022-11-27T07:43:17.359Z,1001.80
2022-11-27T07:44:16.328Z,1001.82
2022-11-27T07:45:16.288Z,1001.83
2022-11-27T07:46:16.390Z,1001.83
2022-11-27T07:48:37.036Z,1001.83
2022-11-27T07:49:37.007Z,1001.84
2022-11-27T07:50:37.005Z,1001.83
2022-11-27T07:51:36.987Z,1001.88
2022-11-27T07:52:41.398Z,1001.81
2022-11-27T07:53:36.956Z,1001.83
2022-11-27T07:55:48.616Z,1001.81
2022-11-27T07:56:48.547Z,1001.87
2022-11-27T07:57:48.516Z,1001.84
2022-11-27T07:58:48.569Z,1001.84
2022-11-27T07:59:48.523Z,1001.84
2022-11-27T08:00:48.609Z,1001.80
2022-11-27T08:01:48.484Z,1001.81
2022-11-27T08:02:48.485Z,1001.82
2022-11-27T08:03:48.474Z,1001.87
2022-11-27T08:04:48.558Z,1001.77
2022-11-27T08:05:48.425Z,1001.75
2022-11-27T08:06:48.439Z,1001.76
2022-11-27T08:07:48.518Z,1001.71
2022-11-27T08:08:48.425Z,1001.75
2022-11-27T08:09:48.394Z,1001.78
2022-11-27T08:10:48.586Z,1001.72
2022-11-27T08:11:48.407Z,1001.73
2022-11-27T08:12:48.386Z,1001.69
2022-11-27T08:13:48.357Z,1001.70
2022-11-27T08:14:48.366Z,1001.75
2022-11-27T08:15:48.356Z,1001.71
2022-11-27T08:16:48.400Z,1001.73
2022-11-27T08:17:48.317Z,1001.72
2022-11-27T08:18:48.312Z,1001.73
2022-11-27T08:19:48.306Z,1001.76
2022-11-27T08:20:48.297Z,1001.78
2022-11-27T08:21:48.265Z,1001.80
2022-11-27T08:22:48.276Z,1001.81
2022-11-27T08:23:48.253Z,1001.72
2022-11-27T08:24:48.266Z,1001.74
2022-11-27T08:25:48.245Z,1001.71
2022-11-27T08:26:48.249Z,1001.70
2022-11-27T08:27:48.228Z,1001.72
2022-11-27T08:28:48.228Z,1001.68
2022-11-27T08:29:48.197Z,1001.67
2022-11-27T08:30:48.196Z,1001.71
2022-11-27T08:31:48.266Z,1001.68
2022-11-27T08:32:48.215Z,1001.68
2022-11-27T08:33:48.158Z,1001.71
2022-11-27T08:34:48.156Z,1001.64
2022-11-27T08:35:48.166Z,1001.65
2022-11-27T08:36:48.155Z,1001.65
2022-11-27T08:37:48.136Z,1001.63
2022-11-27T08:38:48.119Z,1001.70
2022-11-27T08:39:48.088Z,1001.63
2022-11-27T08:40:48.107Z,1001.63
2022-11-27T08:41:48.096Z,1001.64
2022-11-27T08:42:48.066Z,1001.55
2022-11-27T08:43:48.045Z,1001.57
2022-11-27T08:44:48.044Z,1001.60
2022-11-27T08:45:48.091Z,1001.60
2022-11-27T08:46:48.036Z,1001.58
2022-11-27T08:47:48.017Z,1001.60
2022-11-27T08:48:48.006Z,1001.62
2022-11-27T08:49:48.007Z,1001.62
2022-11-27T08:50:47.989Z,1001.61
2022-11-27T08:51:47.958Z,1001.62
2022-11-27T08:52:47.978Z,1001.60
2022-11-27T08:53:47.956Z,1001.62
2022-11-27T08:54:50.858Z,1001.63
2022-11-27T08:55:48.941Z,1001.65
2022-11-27T08:56:47.940Z,1001.61
2022-11-27T08:57:47.958Z,1001.62
2022-11-27T08:58:47.915Z,1001.58
2022-11-27T08:59:47.926Z,1001.56
2022-11-27T09:00:47.929Z,1001.62
2022-11-27T09:01:47.878Z,1001.61
2022-11-27T09:02:47.857Z,1001.56
2022-11-27T09:03:47.857Z,1001.59
2022-11-27T09:04:47.838Z,1001.58
2022-11-27T09:05:47.826Z,1001.58
2022-11-27T09:06:47.876Z,1001.58
2022-11-27T09:07:47.853Z,1001.56
2022-11-27T09:08:47.817Z,1001.60
2022-11-27T09:09:47.829Z,1001.54
2022-11-27T09:10:47.906Z,1001.56
2022-11-27T09:11:47.810Z,1001.51
2022-11-27T09:12:47.779Z,1001.51
2022-11-27T09:13:47.750Z,1001.55
2022-11-27T09:14:47.726Z,1001.53
2022-11-27T09:15:47.717Z,1001.53
2022-11-27T09:16:47.812Z,1001.56
2022-11-27T09:17:47.727Z,1001.52
2022-11-27T09:18:47.715Z,1001.55
2022-11-27T09:19:47.676Z,1001.50
2022-11-27T09:20:47.676Z,1001.55
2022-11-27T09:21:47.647Z,1001.52
2022-11-27T09:22:47.659Z,1001.53
2022-11-27T09:23:47.649Z,1001.52
2022-11-27T09:24:47.649Z,1001.47
2022-11-27T09:25:47.629Z,1001.44
2022-11-27T09:26:47.618Z,1001.45
2022-11-27T09:27:47.619Z,1001.46
2022-11-27T09:28:47.650Z,1001.48
2022-11-27T09:29:48.539Z,1001.44
2022-11-27T09:30:47.590Z,1001.48
2022-11-27T09:31:47.676Z,1001.46
2022-11-27T09:32:47.555Z,1001.50
2022-11-27T09:33:47.528Z,1001.44
2022-11-27T09:34:47.609Z,1001.44
2022-11-27T09:35:47.507Z,1001.43
2022-11-27T09:36:47.528Z,1001.41
2022-11-27T09:37:47.496Z,1001.39
2022-11-27T09:38:47.498Z,1001.45
2022-11-27T09:39:47.510Z,1001.47
2022-11-27T09:40:47.490Z,1001.43
2022-11-27T09:41:47.460Z,1001.41
2022-11-27T09:42:47.471Z,1001.42
2022-11-27T09:43:47.418Z,1001.37
2022-11-27T09:44:47.427Z,1001.34
2022-11-27T09:45:47.457Z,1001.26
2022-11-27T09:46:47.421Z,1001.20
2022-11-27T09:47:47.389Z,1001.18
2022-11-27T09:48:47.401Z,1001.17
2022-11-27T09:49:47.373Z,1001.11
2022-11-27T09:50:47.388Z,1001.15
2022-11-27T09:51:47.350Z,1001.11
2022-11-27T09:52:47.369Z,1001.07
2022-11-27T09:53:47.330Z,1001.01
2022-11-27T09:54:52.234Z,1000.99
2022-11-27T09:55:48.309Z,1000.99
2022-11-27T09:56:47.320Z,1000.95
2022-11-27T09:57:47.278Z,1000.88
2022-11-27T09:58:47.329Z,1000.86
2022-11-27T09:59:47.258Z,1000.85
2022-11-27T10:00:47.300Z,1000.88
2022-11-27T10:01:50.837Z,1000.86
2022-11-27T10:02:47.390Z,1000.87
2022-11-27T10:03:47.230Z,1000.93
2022-11-27T10:05:12.146Z,1000.89
2022-11-27T10:05:48.229Z,1000.88
2022-11-27T10:06:47.216Z,1000.83
2022-11-27T10:07:47.333Z,1000.86
2022-11-27T10:08:47.196Z,1000.83
2022-11-27T10:09:47.179Z,1000.84
2022-11-27T10:10:47.158Z,1000.83
2022-11-27T10:11:47.188Z,1000.81
2022-11-27T10:12:47.146Z,1000.85
2022-11-27T10:13:47.121Z,1000.83
2022-11-27T10:14:47.119Z,1000.84
2022-11-27T10:15:47.126Z,1000.86
2022-11-27T10:16:47.194Z,1000.83
2022-11-27T10:17:47.120Z,1000.87
2022-11-27T10:18:47.094Z,1000.77
2022-11-27T10:19:47.101Z,1000.75
2022-11-27T10:20:47.079Z,1000.72
2022-11-27T10:21:47.070Z,1000.76
2022-11-27T10:22:47.057Z,1000.69
2022-11-27T10:23:47.022Z,1000.70
2022-11-27T10:24:47.020Z,1000.72
2022-11-27T10:25:47.005Z,1000.71
2022-11-27T10:26:47.002Z,1000.69
2022-11-27T10:27:46.980Z,1000.69
2022-11-27T10:28:46.989Z,1000.71
2022-11-27T10:29:47.277Z,1000.68
2022-11-27T10:30:46.958Z,1000.66
2022-11-27T10:31:47.169Z,1000.68
2022-11-27T10:32:55.194Z,1000.63
2022-11-27T10:33:47.916Z,1000.67
2022-11-27T10:34:46.921Z,1000.71
2022-11-27T10:35:46.901Z,1000.76
2022-11-27T10:36:46.903Z,1000.73
2022-11-27T10:37:46.892Z,1000.74
2022-11-27T10:38:46.889Z,1000.73
2022-11-27T10:39:46.861Z,1000.73
2022-11-27T10:40:46.871Z,1000.72
2022-11-27T10:41:49.811Z,1000.73
2022-11-27T10:42:46.839Z,1000.71
2022-11-27T10:43:46.827Z,1000.73
2022-11-27T10:44:46.809Z,1000.61
2022-11-27T10:45:46.875Z,1000.56
2022-11-27T10:46:46.802Z,1000.61
2022-11-27T10:47:46.772Z,1000.56
2022-11-27T10:48:46.798Z,1000.57
2022-11-27T10:49:46.803Z,1000.62
2022-11-27T10:50:46.799Z,1000.61
2022-11-27T10:51:46.733Z,1000.59
2022-11-27T10:52:51.058Z,1000.52
2022-11-27T10:53:47.700Z,1000.47
2022-11-27T10:54:46.888Z,1000.44
2022-11-27T10:55:46.681Z,1000.40
2022-11-27T10:56:46.704Z,1000.37
2022-11-27T10:57:46.671Z,1000.37
2022-11-27T10:58:46.713Z,1000.31
2022-11-27T10:59:46.652Z,1000.31
2022-11-27T11:00:46.745Z,1000.27
2022-11-27T11:01:46.711Z,1000.26
2022-11-27T11:02:46.712Z,1000.22
2022-11-27T11:03:46.611Z,1000.17
2022-11-27T11:04:58.596Z,1000.13
2022-11-27T11:06:12.063Z,1000.12
2022-11-27T11:06:47.590Z,1000.09
2022-11-27T11:07:46.606Z,1000.09
2022-11-27T11:08:46.560Z,1000.10
2022-11-27T11:09:46.541Z,1000.12
2022-11-27T11:10:46.542Z,1000.12
2022-11-27T11:11:46.540Z,1000.09
2022-11-27T11:12:46.531Z,1000.11
2022-11-27T11:13:46.510Z,1000.14
2022-11-27T11:14:46.514Z,1000.13
2022-11-27T11:15:51.470Z,1000.05
2022-11-27T11:16:47.630Z,1000.03
2022-11-27T11:17:46.471Z,1000.10
2022-11-27T11:18:46.473Z,1000.08
2022-11-27T11:19:46.453Z,1000.15
2022-11-27T11:20:46.452Z,1000.06
2022-11-27T11:21:46.431Z,1000.05
2022-11-27T11:22:46.460Z,1000.01
2022-11-27T11:23:46.390Z,1000.01
2022-11-27T11:24:46.401Z,1000.05
2022-11-27T11:25:46.370Z,1000.01
2022-11-27T11:26:46.370Z,1000.08
2022-11-27T11:27:46.350Z,1000.12
2022-11-27T11:28:46.410Z,1000.09
2022-11-27T11:29:46.333Z,1000.08
2022-11-27T11:30:46.373Z,1000.08
2022-11-27T11:31:46.367Z,1000.06
2022-11-27T11:32:46.323Z,1000.03
2022-11-27T11:33:46.305Z,1000.01
2022-11-27T11:34:46.303Z,1000.03
2022-11-27T11:35:46.273Z,999.88
2022-11-27T11:36:46.312Z,999.87
2022-11-27T11:37:46.276Z,999.87
2022-11-27T11:38:46.250Z,999.83
2022-11-27T11:39:46.242Z,999.87
2022-11-27T11:40:46.231Z,999.84
2022-11-27T11:41:46.239Z,999.82
2022-11-27T11:42:46.251Z,999.80
2022-11-27T11:43:46.201Z,999.81
2022-11-27T11:44:46.214Z,999.81
2022-11-27T11:45:46.324Z,999.80
2022-11-27T11:46:46.193Z,999.81
2022-11-27T11:47:46.163Z,999.79
2022-11-27T11:48:46.174Z,999.76
2022-11-27T11:49:46.134Z,999.72
2022-11-27T11:50:46.133Z,999.76
2022-11-27T11:51:46.118Z,999.72
2022-11-27T11:52:46.092Z,999.70
2022-11-27T11:53:46.111Z,999.70
2022-11-27T11:54:46.084Z,999.71
2022-11-27T11:55:46.105Z,999.67
2022-11-27T11:56:46.098Z,999.67
2022-11-27T11:57:46.062Z,999.66
2022-11-27T11:58:46.047Z,999.65
2022-11-27T11:59:46.044Z,999.68
2022-11-27T12:01:19.216Z,999.68
2022-11-27T12:01:47.133Z,999.69
2022-11-27T12:02:46.080Z,999.69
2022-11-27T12:03:46.001Z,999.68
2022-11-27T12:04:46.707Z,999.66
2022-11-27T12:05:45.993Z,999.64
2022-11-27T12:06:45.965Z,999.63
2022-11-27T12:07:51.849Z,999.63
2022-11-27T12:08:46.934Z,999.56
2022-11-27T12:09:45.932Z,999.51